Canton, Ohio
Current Conditions -  °F | °C
As of 4:51 AM on Friday 28 Nov 2014 (Local Time) from KCAK Reporting Station
Broken Clouds Broken Clouds  
Wind Chill: 11°   Ceiling: 4900
Heat Index: 22°   Visibility: 9mi
Dew Point: 13°   Wind: 10mph
Humidity: 68%   Direction: 300°WNW
Pressure: 30.29"   Gusts: NA
Location:  40.8°N, 81.37°W
Report Text: KCAK 280951Z 30009KT 9SM BKN049 M06/M11 A3029 RMK AO2 SNE47 SLP272 P0000 T10561106
Loading
Personal Weather Stations






























Interactive Weather Map New forecast layout! Learn more

10-Day Weather Forecast

Advertisements
Track Severe Weather on mobile